Time;durP1;ratioP1;P1;durP2;ratioP2;P2;SDS_P1;SDS_P2;PMS_P1;PMS_P2;Temp;Humidity;BMP_temperature;BMP_pressure;BME280_temperature;BME280_humidity;BME280_pressure;Samples;Min_cycle;Max_cycle;Signal;HPM_P1;HPM_P2
2022/04/10 00:01:38;;;;;;;3.4;2.7;;;;;;;;;;;;;
2022/04/10 00:04:03;;;;;;;3.7;2.6;;;;;;;;;;;;;
2022/04/10 00:06:30;;;;;;;4.4;2.7;;;;;;;;;;;;;
2022/04/10 00:08:56;;;;;;;3.3;2.6;;;;;;;;;;;;;
2022/04/10 00:11:22;;;;;;;3.4;2.7;;;;;;;;;;;;;
2022/04/10 00:13:47;;;;;;;3.8;2.5;;;;;;;;;;;;;
2022/04/10 00:16:14;;;;;;;4.1;2.8;;;;;;;;;;;;;
2022/04/10 00:18:40;;;;;;;2.8;2.2;;;;;;;;;;;;;
2022/04/10 00:21:07;;;;;;;3.6;2.6;;;;;;;;;;;;;
2022/04/10 00:23:31;;;;;;;3.3;2.6;;;;;;;;;;;;;
2022/04/10 00:25:56;;;;;;;3.9;2.6;;;;;;;;;;;;;
2022/04/10 00:28:21;;;;;;;3.6;2.7;;;;;;;;;;;;;
2022/04/10 00:30:46;;;;;;;3.2;2.5;;;;;;;;;;;;;
2022/04/10 00:33:11;;;;;;;3.6;2.7;;;;;;;;;;;;;
2022/04/10 00:35:37;;;;;;;4.4;2.6;;;;;;;;;;;;;
2022/04/10 00:38:02;;;;;;;3.7;2.6;;;;;;;;;;;;;
2022/04/10 00:40:31;;;;;;;4.1;2.2;;;;;;;;;;;;;
2022/04/10 00:43:00;;;;;;;3.2;2.6;;;;;;;;;;;;;
2022/04/10 00:45:25;;;;;;;5.1;2.8;;;;;;;;;;;;;
2022/04/10 00:47:53;;;;;;;3.8;2.5;;;;;;;;;;;;;
2022/04/10 00:50:18;;;;;;;3.6;2.4;;;;;;;;;;;;;
2022/04/10 00:52:44;;;;;;;3.4;2.3;;;;;;;;;;;;;
2022/04/10 00:55:09;;;;;;;3.9;2.2;;;;;;;;;;;;;
2022/04/10 00:57:36;;;;;;;4.3;2.5;;;;;;;;;;;;;
2022/04/10 01:00:01;;;;;;;2.2;2;;;;;;;;;;;;;
2022/04/10 01:02:28;;;;;;;4.7;2.4;;;;;;;;;;;;;
2022/04/10 01:04:53;;;;;;;2.4;2.2;;;;;;;;;;;;;
2022/04/10 01:07:18;;;;;;;2.7;2.2;;;;;;;;;;;;;
2022/04/10 01:09:43;;;;;;;3.1;2.4;;;;;;;;;;;;;
2022/04/10 01:12:09;;;;;;;3;2.5;;;;;;;;;;;;;
2022/04/10 01:14:34;;;;;;;4.3;2.7;;;;;;;;;;;;;
2022/04/10 01:17:02;;;;;;;2.9;2.4;;;;;;;;;;;;;
2022/04/10 01:19:28;;;;;;;3.7;2.6;;;;;;;;;;;;;
2022/04/10 01:21:55;;;;;;;3.1;2.5;;;;;;;;;;;;;
2022/04/10 01:24:19;;;;;;;2.6;2.3;;;;;;;;;;;;;
2022/04/10 01:26:44;;;;;;;4;2.5;;;;;;;;;;;;;
2022/04/10 01:29:10;;;;;;;3.5;2.4;;;;;;;;;;;;;
2022/04/10 01:31:36;;;;;;;3.1;2.2;;;;;;;;;;;;;
2022/04/10 01:34:01;;;;;;;3.8;2.5;;;;;;;;;;;;;
2022/04/10 01:36:26;;;;;;;3.5;2.6;;;;;;;;;;;;;
2022/04/10 01:38:51;;;;;;;3.8;2.6;;;;;;;;;;;;;
2022/04/10 01:41:19;;;;;;;4.1;2.7;;;;;;;;;;;;;
2022/04/10 01:43:44;;;;;;;5;3;;;;;;;;;;;;;
2022/04/10 01:46:10;;;;;;;3;2.6;;;;;;;;;;;;;
2022/04/10 01:48:35;;;;;;;3;2.4;;;;;;;;;;;;;
2022/04/10 01:51:01;;;;;;;3.2;2.8;;;;;;;;;;;;;
2022/04/10 01:53:27;;;;;;;4.9;3.2;;;;;;;;;;;;;
2022/04/10 01:55:53;;;;;;;4.3;3.3;;;;;;;;;;;;;
2022/04/10 01:58:18;;;;;;;5;3.7;;;;;;;;;;;;;
2022/04/10 02:00:44;;;;;;;3.9;3.4;;;;;;;;;;;;;
2022/04/10 02:03:11;;;;;;;3.8;2.9;;;;;;;;;;;;;
2022/04/10 02:05:39;;;;;;;5.3;3.1;;;;;;;;;;;;;
2022/04/10 02:08:04;;;;;;;4.1;2.8;;;;;;;;;;;;;
2022/04/10 02:10:29;;;;;;;4.5;3;;;;;;;;;;;;;
2022/04/10 02:12:54;;;;;;;3.7;3.1;;;;;;;;;;;;;
2022/04/10 02:15:22;;;;;;;3.8;3.2;;;;;;;;;;;;;
2022/04/10 02:17:47;;;;;;;4.6;3.1;;;;;;;;;;;;;
2022/04/10 02:20:17;;;;;;;2.9;2.6;;;;;;;;;;;;;
2022/04/10 02:22:45;;;;;;;3.5;2.6;;;;;;;;;;;;;
2022/04/10 02:25:10;;;;;;;4.2;3;;;;;;;;;;;;;
2022/04/10 02:27:37;;;;;;;5.1;3;;;;;;;;;;;;;
2022/04/10 02:30:02;;;;;;;3.7;2.7;;;;;;;;;;;;;
2022/04/10 02:32:32;;;;;;;3.9;2.9;;;;;;;;;;;;;
2022/04/10 02:34:59;;;;;;;4.3;3.6;;;;;;;;;;;;;
2022/04/10 02:37:24;;;;;;;4;3;;;;;;;;;;;;;
2022/04/10 02:39:50;;;;;;;4;3;;;;;;;;;;;;;
2022/04/10 02:42:15;;;;;;;3.3;2.8;;;;;;;;;;;;;
2022/04/10 02:44:41;;;;;;;3;2.7;;;;;;;;;;;;;
2022/04/10 02:47:06;;;;;;;2.8;2.5;;;;;;;;;;;;;
2022/04/10 02:49:32;;;;;;;4;2.6;;;;;;;;;;;;;
2022/04/10 02:51:57;;;;;;;3.8;2.5;;;;;;;;;;;;;
2022/04/10 02:54:24;;;;;;;4.1;2.9;;;;;;;;;;;;;
2022/04/10 02:56:49;;;;;;;4.6;2.6;;;;;;;;;;;;;
2022/04/10 02:59:14;;;;;;;2.8;2.2;;;;;;;;;;;;;
2022/04/10 03:01:39;;;;;;;5.6;2.6;;;;;;;;;;;;;
2022/04/10 03:04:05;;;;;;;6.1;2.5;;;;;;;;;;;;;
2022/04/10 03:06:30;;;;;;;3.6;2.4;;;;;;;;;;;;;
2022/04/10 03:08:55;;;;;;;3;2.4;;;;;;;;;;;;;
2022/04/10 03:11:23;;;;;;;4.1;2.6;;;;;;;;;;;;;
2022/04/10 03:13:46;;;;;;;4.1;2.6;;;;;;;;;;;;;
2022/04/10 03:16:13;;;;;;;3;2.4;;;;;;;;;;;;;
2022/04/10 03:18:38;;;;;;;2.8;2.5;;;;;;;;;;;;;
2022/04/10 03:21:04;;;;;;;3.1;2.4;;;;;;;;;;;;;
2022/04/10 03:23:29;;;;;;;3.9;2.4;;;;;;;;;;;;;
2022/04/10 03:25:54;;;;;;;3.7;2.8;;;;;;;;;;;;;
2022/04/10 03:28:20;;;;;;;3.4;2.6;;;;;;;;;;;;;
2022/04/10 03:30:46;;;;;;;4.9;2.7;;;;;;;;;;;;;
2022/04/10 03:33:12;;;;;;;2.7;2.5;;;;;;;;;;;;;
2022/04/10 03:35:37;;;;;;;4.2;2.8;;;;;;;;;;;;;
2022/04/10 03:38:04;;;;;;;4.2;3.2;;;;;;;;;;;;;
2022/04/10 03:40:28;;;;;;;4;3;;;;;;;;;;;;;
2022/04/10 03:42:54;;;;;;;3.2;2.7;;;;;;;;;;;;;
2022/04/10 03:45:19;;;;;;;3.5;2.6;;;;;;;;;;;;;
2022/04/10 03:47:46;;;;;;;4;2.7;;;;;;;;;;;;;
2022/04/10 03:50:11;;;;;;;3.4;2.6;;;;;;;;;;;;;
2022/04/10 03:52:38;;;;;;;3.7;2.6;;;;;;;;;;;;;
2022/04/10 03:55:03;;;;;;;3.7;2.8;;;;;;;;;;;;;
2022/04/10 03:57:31;;;;;;;4.4;2.8;;;;;;;;;;;;;
2022/04/10 03:59:56;;;;;;;4;3.1;;;;;;;;;;;;;
2022/04/10 04:02:37;;;;;;;4.3;2.9;;;;;;;2.77;86.67285;938.5363;;;;
2022/04/10 04:05:09;;;;;;;7.4;3;;;;;;;2.72;86.96484;938.6199;;;;
2022/04/10 04:07:36;;;;;;;4.1;3.7;;;;;;;2.86;87.27441;938.6116;;;;
2022/04/10 04:12:35;;;;;;;4.2;2.6;;;;;;;2.82;87.51367;938.6667;;;;
2022/04/10 04:15:01;;;;;;;4.8;2.7;;;;;;;2.63;88.08008;938.6872;;;;
2022/04/10 04:17:29;;;;;;;5.5;3.1;;;;;;;2.55;88.34277;938.7906;;;;
2022/04/10 04:19:58;;;;;;;4.1;2.6;;;;;;;2.64;88.42969;938.8166;;;;
2022/04/10 04:22:22;;;;;;;4.7;2.6;;;;;;;2.78;88.12109;938.91;;;;
2022/04/10 04:24:52;;;;;;;4.3;2.5;;;;;;;2.85;88.14941;938.8503;;;;
2022/04/10 04:27:17;;;;;;;3.1;2.8;;;;;;;2.88;88.25391;938.8756;;;;
2022/04/10 04:29:50;;;;;;;4;2.7;;;;;;;2.85;88.5957;938.8809;;;;
2022/04/10 04:32:18;;;;;;;3.6;2.6;;;;;;;2.95;87.84277;938.8925;;;;
2022/04/10 04:34:48;;;;;;;3.9;2.6;;;;;;;2.85;87.67676;938.9548;;;;
2022/04/10 04:37:20;;;;;;;2.8;2.3;;;;;;;2.79;88.31348;938.9142;;;;
2022/04/10 04:39:45;;;;;;;3.8;2.7;;;;;;;2.86;88.52148;938.8979;;;;
2022/04/10 04:42:17;;;;;;;3.1;2.4;;;;;;;2.86;88.61133;938.8759;;;;
2022/04/10 04:44:43;;;;;;;3.1;2.5;;;;;;;3.01;88.27246;938.801;;;;
2022/04/10 04:47:11;;;;;;;3.4;2.5;;;;;;;3.04;87.7959;938.7698;;;;
2022/04/10 04:49:36;;;;;;;3.1;2.5;;;;;;;3.05;87.57129;938.8181;;;;
2022/04/10 04:52:05;;;;;;;3.8;2.4;;;;;;;3.03;87.45508;938.749;;;;
2022/04/10 04:54:31;;;;;;;4.2;2.1;;;;;;;3.06;87.41797;938.7831;;;;
2022/04/10 04:56:59;;;;;;;4.5;2.5;;;;;;;3.1;86.90723;938.8569;;;;
2022/04/10 04:59:24;;;;;;;4.5;2.5;;;;;;;3.04;87.12109;938.8577;;;;
2022/04/10 05:01:55;;;;;;;3.8;2.6;;;;;;;2.89;87.71973;938.9344;;;;
2022/04/10 05:04:26;;;;;;;3.4;2.5;;;;;;;2.97;87.71387;938.9219;;;;
2022/04/10 05:06:56;;;;;;;3.5;2.6;;;;;;;2.92;87.73438;938.988;;;;
2022/04/10 05:09:23;;;;;;;3.3;2.8;;;;;;;2.96;88.08203;938.9897;;;;
2022/04/10 05:11:49;;;;;;;3.2;2.5;;;;;;;2.98;88.00684;939.0197;;;;
2022/04/10 05:14:19;;;;;;;3.3;2.5;;;;;;;3.04;87.56055;939.0262;;;;
2022/04/10 05:16:45;;;;;;;3.3;2.6;;;;;;;3.02;87.56543;938.9824;;;;
2022/04/10 05:19:12;;;;;;;4.2;2.8;;;;;;;3;88.45996;939.0605;;;;
2022/04/10 05:21:37;;;;;;;4.6;2.7;;;;;;;3.08;88.08203;939.1;;;;
2022/04/10 05:24:08;;;;;;;5.6;2.9;;;;;;;3.07;87.90039;939.1633;;;;
2022/04/10 05:26:36;;;;;;;5.3;3.3;;;;;;;2.97;88.67676;939.1576;;;;
2022/04/10 05:29:01;;;;;;;4.7;3.2;;;;;;;3.09;88.82617;939.1579;;;;
2022/04/10 05:31:30;;;;;;;3.6;2.6;;;;;;;3.16;88.30078;939.1714;;;;
2022/04/10 05:33:55;;;;;;;3.1;2.8;;;;;;;3.22;87.80859;939.2417;;;;
2022/04/10 05:36:24;;;;;;;4.2;2.8;;;;;;;3.24;87.41992;939.2723;;;;
2022/04/10 05:38:54;;;;;;;4.4;3.4;;;;;;;3.22;86.97852;939.2961;;;;
2022/04/10 05:41:19;;;;;;;5.8;4;;;;;;;3.13;87.22949;939.4332;;;;
2022/04/10 05:43:49;;;;;;;5.3;3.8;;;;;;;3.18;87.45117;939.3887;;;;
2022/04/10 05:46:19;;;;;;;6.1;4;;;;;;;3.21;87.22363;939.5073;;;;
2022/04/10 05:48:49;;;;;;;5.9;4;;;;;;;3.2;87.24414;939.5367;;;;
2022/04/10 05:51:14;;;;;;;5.2;3.9;;;;;;;3.27;87.42676;939.5184;;;;
2022/04/10 05:53:42;;;;;;;5.1;4.1;;;;;;;3.35;87.19531;939.5568;;;;
2022/04/10 05:56:07;;;;;;;4.8;3.9;;;;;;;3.35;86.72559;939.546;;;;
2022/04/10 05:58:35;;;;;;;4.2;3.6;;;;;;;3.34;86.29688;939.6643;;;;
2022/04/10 06:01:00;;;;;;;7.3;5.6;;;;;;;3.26;86.9541;939.7234;;;;
2022/04/10 06:03:30;;;;;;;5.1;4.2;;;;;;;2.9;88.41504;939.8059;;;;
2022/04/10 06:06:01;;;;;;;4.2;3.6;;;;;;;3.01;88.71973;939.762;;;;
2022/04/10 06:08:30;;;;;;;4.2;3.6;;;;;;;2.93;89.33105;939.8458;;;;
2022/04/10 06:11:00;;;;;;;4;3.3;;;;;;;3.06;89.08984;939.8403;;;;
2022/04/10 06:13:30;;;;;;;4.6;3.4;;;;;;;3.08;88.78906;939.8504;;;;
2022/04/10 06:18:36;;;;;;;5;3.6;;;;;;;3.13;88.70117;939.8872;;;;
2022/04/10 06:21:04;;;;;;;4.6;3.6;;;;;;;3.22;88.13477;939.81;;;;
2022/04/10 06:23:29;;;;;;;4.8;3.4;;;;;;;3.33;88.57422;939.9339;;;;
2022/04/10 06:25:59;;;;;;;4.1;3.2;;;;;;;3.78;88.52051;939.9003;;;;
2022/04/10 06:28:53;;;;;;;3.9;3.2;;;;;;;4.03;87.30176;939.825;;;;
2022/04/10 06:31:02;;;;;;;3.9;3.1;;;;;;;5.06;82.65234;939.8742;;;;
2022/04/10 06:33:28;;;;;;;3;2.2;;;;;;;6.16;77.39551;939.8549;;;;
2022/04/10 06:35:57;;;;;;;2;1.8;;;;;;;6.91;72.88867;939.8374;;;;
2022/04/10 06:38:27;;;;;;;2.5;1.4;;;;;;;6.73;70.50586;939.8738;;;;
2022/04/10 06:40:52;;;;;;;1.8;1.5;;;;;;;6.97;70.13672;939.8486;;;;
2022/04/10 06:43:21;;;;;;;2.8;1.6;;;;;;;7.06;69.81152;939.9025;;;;
2022/04/10 06:45:46;;;;;;;2.2;1.9;;;;;;;6.67;70.76758;939.9063;;;;
2022/04/10 06:48:15;;;;;;;2.6;2;;;;;;;6.38;71.97461;939.8985;;;;
2022/04/10 06:50:40;;;;;;;2.9;2;;;;;;;6;72.02344;939.8636;;;;
2022/04/10 06:53:11;;;;;;;2.6;2.1;;;;;;;5.62;73.91309;939.9662;;;;
2022/04/10 06:55:44;;;;;;;2.7;2.4;;;;;;;4.53;77.13672;940.0144;;;;
2022/04/10 06:58:10;;;;;;;2.7;2.5;;;;;;;4.5;79.74219;940.0338;;;;
2022/04/10 07:00:36;;;;;;;3.7;3;;;;;;;4.31;80.35938;940.0921;;;;
2022/04/10 07:03:08;;;;;;;3.4;3;;;;;;;4.41;80.36719;940.0905;;;;
2022/04/10 07:05:33;;;;;;;3.5;3.2;;;;;;;3.8;82.74707;940.1136;;;;
2022/04/10 07:08:03;;;;;;;3.3;2.9;;;;;;;4.01;82.69922;940.0355;;;;
2022/04/10 07:10:29;;;;;;;3.2;2.9;;;;;;;3.93;82.87402;940.0142;;;;
2022/04/10 07:12:55;;;;;;;4.5;3.2;;;;;;;3.74;84.00391;940.0695;;;;
2022/04/10 07:15:20;;;;;;;3.7;3.3;;;;;;;3.48;84.83008;940.1554;;;;
2022/04/10 07:17:45;;;;;;;3.5;3.2;;;;;;;3.54;86.1123;940.2194;;;;
2022/04/10 07:20:17;;;;;;;4.2;3.1;;;;;;;3.65;85.76367;940.2489;;;;
2022/04/10 07:25:13;;;;;;;4.1;3.4;;;;;;;3.49;85.18262;940.2136;;;;
2022/04/10 07:27:38;;;;;;;4.7;3.6;;;;;;;3.45;86.13867;940.2811;;;;
2022/04/10 07:30:05;;;;;;;3.5;2.9;;;;;;;3.83;84.97754;940.2378;;;;
2022/04/10 07:32:31;;;;;;;3.4;3;;;;;;;3.89;84.73145;940.3521;;;;
2022/04/10 07:34:56;;;;;;;6.9;4.3;;;;;;;3.87;84.69434;940.353;;;;
2022/04/10 07:37:24;;;;;;;9.9;6.1;;;;;;;4.79;82.43262;940.3792;;;;
2022/04/10 07:39:49;;;;;;;9.1;5.4;;;;;;;4.65;80.16406;940.2835;;;;
2022/04/10 07:42:19;;;;;;;4.5;3.4;;;;;;;4.71;80.2334;940.3372;;;;
2022/04/10 07:44:49;;;;;;;5.2;4.4;;;;;;;5.01;79.56641;940.3076;;;;
2022/04/10 07:47:31;;;;;;;3.3;2.1;;;;;;;4.85;78.32129;940.2562;;;;
2022/04/10 07:49:40;;;;;;;2.9;2.5;;;;;;;4.42;78.51172;940.2896;;;;
2022/04/10 07:52:10;;;;;;;2.6;2.1;;;;;;;3.92;80.71387;940.3179;;;;
2022/04/10 07:54:34;;;;;;;2.9;2.5;;;;;;;3.91;80.2627;940.3112;;;;
2022/04/10 07:57:04;;;;;;;3.3;2.7;;;;;;;4.51;79.71191;940.337;;;;
2022/04/10 07:59:28;;;;;;;5.8;4.1;;;;;;;4.5;79.66211;940.3381;;;;
2022/04/10 08:01:56;;;;;;;6.3;4.3;;;;;;;5;79.50977;940.3764;;;;
2022/04/10 08:04:27;;;;;;;4.5;3.4;;;;;;;5.24;76.73438;940.4275;;;;
2022/04/10 08:06:58;;;;;;;2.2;2;;;;;;;4.65;77.77637;940.4019;;;;
2022/04/10 08:09:27;;;;;;;4.6;3.2;;;;;;;5.34;77.83496;940.4339;;;;
2022/04/10 08:11:53;;;;;;;5;3.7;;;;;;;5.64;77.74316;940.3959;;;;
2022/04/10 08:14:18;;;;;;;4.6;3.5;;;;;;;5.27;76.58105;940.419;;;;
2022/04/10 08:16:44;;;;;;;5.2;3;;;;;;;5.49;77.43262;940.4208;;;;
2022/04/10 08:19:10;;;;;;;5.3;3.8;;;;;;;5.91;76.27832;940.4378;;;;
2022/04/10 08:21:35;;;;;;;3.3;2.9;;;;;;;7.07;73.24512;940.4166;;;;
2022/04/10 08:24:03;;;;;;;3;2.3;;;;;;;9.28;65.71094;940.322;;;;
2022/04/10 08:26:28;;;;;;;3.5;2.8;;;;;;;10.79;58.10449;940.3926;;;;
2022/04/10 08:28:53;;;;;;;3.5;2.6;;;;;;;11.16;55.79785;940.3694;;;;
2022/04/10 08:31:19;;;;;;;3;2.6;;;;;;;10.74;57.1377;940.427;;;;
2022/04/10 08:33:44;;;;;;;2.4;2;;;;;;;10.64;55.22754;940.4353;;;;
2022/04/10 08:36:13;;;;;;;2.8;2.1;;;;;;;10.41;55.75879;940.3883;;;;
2022/04/10 08:38:41;;;;;;;3.6;2.1;;;;;;;10.69;55.61133;940.3953;;;;
2022/04/10 08:41:06;;;;;;;2;1.6;;;;;;;10.71;56.24316;940.508;;;;
2022/04/10 08:43:36;;;;;;;2.2;1.5;;;;;;;10.32;59.44531;940.5277;;;;
2022/04/10 08:46:01;;;;;;;3.1;2.2;;;;;;;11.51;54.24219;940.4835;;;;
2022/04/10 08:48:26;;;;;;;2.5;2.1;;;;;;;12.13;53.07129;940.5184;;;;
2022/04/10 08:50:52;;;;;;;2.6;2.3;;;;;;;11.89;51.95215;940.5969;;;;
2022/04/10 08:53:19;;;;;;;2.3;1.9;;;;;;;10.63;55.87891;940.6973;;;;
2022/04/10 08:55:45;;;;;;;3.4;2.2;;;;;;;9.78;58.66309;940.7506;;;;
2022/04/10 08:58:12;;;;;;;3.8;2.6;;;;;;;8.32;63.96289;940.781;;;;
2022/04/10 09:00:37;;;;;;;3.9;3.1;;;;;;;7.37;67.83301;940.8641;;;;
2022/04/10 09:03:04;;;;;;;4;2.6;;;;;;;6.92;68.96191;940.9047;;;;
2022/04/10 09:05:29;;;;;;;2.9;2.6;;;;;;;6.39;71.38965;940.9311;;;;
2022/04/10 09:07:57;;;;;;;3;2.7;;;;;;;5.89;73.69824;940.9734;;;;
2022/04/10 09:10:22;;;;;;;4;3.4;;;;;;;5.63;74.41113;940.9509;;;;
2022/04/10 09:12:49;;;;;;;4.5;3.2;;;;;;;5.37;76.11426;940.9592;;;;
2022/04/10 09:15:16;;;;;;;3.4;3.1;;;;;;;4.97;77.79004;940.9378;;;;
2022/04/10 09:17:41;;;;;;;4.3;3.9;;;;;;;4.41;80.68262;941.0902;;;;
2022/04/10 09:20:10;;;;;;;4.9;3.8;;;;;;;4.22;82.64746;941.1323;;;;
2022/04/10 09:22:37;;;;;;;4.7;4.1;;;;;;;4.32;83.00586;941.0722;;;;
2022/04/10 09:25:03;;;;;;;5.4;3.9;;;;;;;4.63;81.95117;941.0394;;;;
2022/04/10 09:27:28;;;;;;;3.9;3.3;;;;;;;4.77;82.28125;940.9889;;;;
2022/04/10 09:29:55;;;;;;;7.6;4.5;;;;;;;4.74;80.62207;940.9598;;;;
2022/04/10 09:32:20;;;;;;;5.5;4.8;;;;;;;5.24;82.98242;940.9659;;;;
2022/04/10 09:34:50;;;;;;;3.5;3.2;;;;;;;6.85;78.30273;940.9353;;;;
2022/04/10 09:37:15;;;;;;;4.2;3.1;;;;;;;8.1;70.4248;940.8671;;;;
2022/04/10 09:39:44;;;;;;;2.6;2.1;;;;;;;7.63;70.3584;940.777;;;;
2022/04/10 09:42:09;;;;;;;2.6;2.3;;;;;;;7.54;68.13379;940.8784;;;;
2022/04/10 09:44:39;;;;;;;3;2.3;;;;;;;9.43;62.95508;940.8081;;;;
2022/04/10 09:47:06;;;;;;;2.5;2.2;;;;;;;10.51;59.95117;940.8889;;;;
2022/04/10 09:49:34;;;;;;;1.9;1.5;;;;;;;9.75;57.36035;940.9394;;;;
2022/04/10 09:51:59;;;;;;;2.2;2;;;;;;;9.31;57.91699;940.9019;;;;
2022/04/10 09:54:26;;;;;;;3.4;2.2;;;;;;;8.49;59.60254;940.8544;;;;
2022/04/10 09:56:51;;;;;;;3.8;2.6;;;;;;;7.99;65.11719;940.8303;;;;
2022/04/10 09:59:19;;;;;;;2.5;2.3;;;;;;;7.61;65.60547;940.817;;;;
2022/04/10 10:01:44;;;;;;;3;2.3;;;;;;;8.32;61.62305;940.7946;;;;
2022/04/10 10:04:12;;;;;;;2.8;2.3;;;;;;;10.07;65.83203;940.7861;;;;
2022/04/10 10:06:37;;;;;;;3.1;2.8;;;;;;;11.23;57.63574;940.7697;;;;
2022/04/10 10:09:04;;;;;;;2;1.8;;;;;;;11.79;53.26953;940.7322;;;;
2022/04/10 10:11:29;;;;;;;2.8;2.1;;;;;;;10.86;53.18848;940.7202;;;;
2022/04/10 10:13:56;;;;;;;1.6;1.5;;;;;;;10.3;54.3291;940.6873;;;;
2022/04/10 10:16:22;;;;;;;2;1.6;;;;;;;10.4;52.27734;940.7103;;;;
2022/04/10 10:18:48;;;;;;;4.4;3.3;;;;;;;10.62;53.63965;940.6772;;;;
2022/04/10 10:21:13;;;;;;;3.5;2;;;;;;;11.25;51.63477;940.652;;;;
2022/04/10 10:23:39;;;;;;;2.3;1.7;;;;;;;12.07;51.79004;940.5483;;;;
2022/04/10 10:26:04;;;;;;;2.1;1.8;;;;;;;13.65;50.66895;940.5272;;;;
2022/04/10 10:28:32;;;;;;;2.1;1.8;;;;;;;15.15;47.7041;940.5432;;;;
2022/04/10 10:30:57;;;;;;;3.4;2;;;;;;;14.66;42.26758;940.4344;;;;
2022/04/10 10:33:26;;;;;;;2.8;1.9;;;;;;;14.89;41.98926;940.4556;;;;
2022/04/10 10:35:51;;;;;;;1.6;1.4;;;;;;;15.23;44.82617;940.4981;;;;
2022/04/10 10:38:16;;;;;;;1.7;1.3;;;;;;;14.83;40.07031;940.4839;;;;
2022/04/10 10:40:41;;;;;;;1.5;1.4;;;;;;;14.93;41.41699;940.4242;;;;
2022/04/10 10:43:09;;;;;;;1.6;1.3;;;;;;;14.11;39.12988;940.3093;;;;
2022/04/10 10:45:35;;;;;;;1.8;1.3;;;;;;;14.37;34.00293;940.2957;;;;
2022/04/10 10:48:04;;;;;;;1.4;1.3;;;;;;;13.67;37.8252;940.2759;;;;
2022/04/10 10:50:31;;;;;;;1.5;1.4;;;;;;;14.87;35.875;940.2897;;;;
2022/04/10 10:53:00;;;;;;;1.8;1.1;;;;;;;15.19;34.00977;940.2172;;;;
2022/04/10 10:55:30;;;;;;;2.1;1.4;;;;;;;12.95;37.07324;940.2227;;;;
2022/04/10 10:58:01;;;;;;;1.9;1.4;;;;;;;11.18;38.625;940.3161;;;;
2022/04/10 11:00:26;;;;;;;1.5;1.3;;;;;;;10.71;42.33105;940.3198;;;;
2022/04/10 11:02:54;;;;;;;1.4;1.2;;;;;;;10.72;43.88574;940.2675;;;;
2022/04/10 11:05:26;;;;;;;1.9;1.1;;;;;;;10.72;41.81738;940.2891;;;;
2022/04/10 11:07:51;;;;;;;1.9;1.4;;;;;;;13.08;40.07031;940.2321;;;;
2022/04/10 11:10:20;;;;;;;1;0.9;;;;;;;15.62;35.37109;940.2375;;;;
2022/04/10 11:12:45;;;;;;;1.5;1.2;;;;;;;16.22;34.94629;940.2151;;;;
2022/04/10 11:15:10;;;;;;;1.3;1.1;;;;;;;16.11;32;940.2335;;;;
2022/04/10 11:17:40;;;;;;;1.5;1.2;;;;;;;14.88;34.41309;940.272;;;;
2022/04/10 11:20:05;;;;;;;1.6;1.4;;;;;;;14.08;34.5332;940.351;;;;
2022/04/10 11:22:30;;;;;;;2.8;1.4;;;;;;;13.67;36.13379;940.3448;;;;
2022/04/10 11:24:55;;;;;;;2.1;1.3;;;;;;;12.36;34.88965;940.2302;;;;
2022/04/10 11:27:20;;;;;;;1.6;1.1;;;;;;;11.19;39.39355;940.3546;;;;
2022/04/10 11:29:47;;;;;;;1.7;1.2;;;;;;;11.81;38.09766;940.3198;;;;
2022/04/10 11:32:12;;;;;;;1.9;1.3;;;;;;;11.91;40.39746;940.3935;;;;
2022/04/10 11:34:41;;;;;;;1.7;1.2;;;;;;;11.75;40.78418;940.4221;;;;
2022/04/10 11:37:06;;;;;;;1.3;1.2;;;;;;;10.42;40.41895;940.4076;;;;
2022/04/10 11:39:35;;;;;;;2.2;1.7;;;;;;;9.96;42.63379;940.349;;;;
2022/04/10 11:42:00;;;;;;;2.2;2;;;;;;;9.41;47.78418;940.3691;;;;
2022/04/10 11:44:29;;;;;;;2.7;2;;;;;;;8.89;50.23926;940.389;;;;
2022/04/10 11:46:54;;;;;;;2.1;1.9;;;;;;;8.57;52.12305;940.3107;;;;
2022/04/10 11:49:21;;;;;;;2.5;2.3;;;;;;;8.05;54.9209;940.4075;;;;
2022/04/10 11:51:46;;;;;;;2.2;2;;;;;;;7.69;54.35156;940.4241;;;;
2022/04/10 11:54:13;;;;;;;3.8;2.1;;;;;;;7.47;55.02832;940.4297;;;;
2022/04/10 11:56:38;;;;;;;2.7;2;;;;;;;7.38;57.99609;940.53;;;;
2022/04/10 11:59:03;;;;;;;3.2;2.4;;;;;;;7.27;59.04688;940.6786;;;;
2022/04/10 12:01:28;;;;;;;2.7;2.2;;;;;;;7.16;61.89844;940.5726;;;;
2022/04/10 12:03:58;;;;;;;2.3;2;;;;;;;7.22;60.29883;940.6378;;;;
2022/04/10 12:06:24;;;;;;;2.3;1.8;;;;;;;7.8;56.95313;940.563;;;;
2022/04/10 12:08:49;;;;;;;2.1;1.7;;;;;;;8.77;53.92188;940.5873;;;;
2022/04/10 12:11:14;;;;;;;2.2;1.8;;;;;;;9.29;51.52637;940.7139;;;;
2022/04/10 12:13:39;;;;;;;2.2;1.9;;;;;;;9.34;51.84082;940.6275;;;;
2022/04/10 12:16:04;;;;;;;2;1.8;;;;;;;9.09;51.04883;940.6433;;;;
2022/04/10 12:18:29;;;;;;;2.2;1.9;;;;;;;8.97;50.5459;940.6844;;;;
2022/04/10 12:20:56;;;;;;;2.3;2;;;;;;;8.95;50.11035;940.6793;;;;
2022/04/10 12:23:21;;;;;;;2.3;1.8;;;;;;;9.15;51.1123;940.6086;;;;
2022/04/10 12:25:47;;;;;;;2.2;1.8;;;;;;;9.66;49.55371;940.5683;;;;
2022/04/10 12:28:12;;;;;;;3.5;1.7;;;;;;;9.9;49.19336;940.5278;;;;
2022/04/10 12:30:41;;;;;;;1.7;1.5;;;;;;;10.19;48.62305;940.5673;;;;
2022/04/10 12:33:06;;;;;;;3.3;2;;;;;;;10.57;47.39746;940.4963;;;;
2022/04/10 12:35:37;;;;;;;1.2;1.1;;;;;;;10.66;43.51367;940.5256;;;;
2022/04/10 12:38:02;;;;;;;1.5;1.4;;;;;;;11.08;43.94434;940.5159;;;;
2022/04/10 12:40:28;;;;;;;1.8;1.6;;;;;;;11.74;43.64453;940.5488;;;;
2022/04/10 12:42:52;;;;;;;1.7;1.6;;;;;;;11.57;43.60547;940.5278;;;;
2022/04/10 12:45:19;;;;;;;1.7;1.4;;;;;;;11.57;43.54883;940.5383;;;;
2022/04/10 12:47:45;;;;;;;2.1;1.5;;;;;;;11.31;41.55371;940.4668;;;;
2022/04/10 12:50:16;;;;;;;3.8;1.4;;;;;;;9.71;42.97363;940.4895;;;;
2022/04/10 12:52:44;;;;;;;1.8;1.4;;;;;;;9.66;42.93457;940.5356;;;;
2022/04/10 12:55:14;;;;;;;3;1.8;;;;;;;9.99;45.14551;940.5499;;;;
2022/04/10 12:57:42;;;;;;;2.3;1.5;;;;;;;9.71;45.15137;940.5596;;;;
2022/04/10 13:00:10;;;;;;;1.8;1.3;;;;;;;9.59;39.98828;940.3864;;;;
2022/04/10 13:02:34;;;;;;;2.4;1.4;;;;;;;10.14;39.75293;940.3287;;;;
2022/04/10 13:05:00;;;;;;;2;1.3;;;;;;;10.52;40.64453;940.2536;;;;
2022/04/10 13:07:25;;;;;;;1.3;0.9;;;;;;;10.75;38.00391;940.3052;;;;
2022/04/10 13:09:52;;;;;;;1.4;1;;;;;;;11.26;36.04883;940.2927;;;;
2022/04/10 13:12:17;;;;;;;2.6;1.2;;;;;;;12.66;37.35742;940.1924;;;;
2022/04/10 13:14:43;;;;;;;1.5;1.2;;;;;;;14.24;32.17383;939.9819;;;;
2022/04/10 13:17:10;;;;;;;1.9;1;;;;;;;15.04;30.30664;940.0031;;;;
2022/04/10 13:19:33;;;;;;;1.5;1.1;;;;;;;14.59;33.97461;940.008;;;;
2022/04/10 13:22:01;;;;;;;1.1;1;;;;;;;13.92;33.68066;940.1058;;;;
2022/04/10 13:24:26;;;;;;;1.3;1.2;;;;;;;13.36;33.68359;940.0901;;;;
2022/04/10 13:26:52;;;;;;;1.8;1;;;;;;;12.05;32.25195;940.0428;;;;
2022/04/10 13:29:17;;;;;;;1.2;1.1;;;;;;;11.57;34.19727;939.9249;;;;
2022/04/10 13:31:44;;;;;;;1.5;1;;;;;;;11.36;37.60156;940.0623;;;;
2022/04/10 13:34:09;;;;;;;1.6;1.3;;;;;;;11.24;36.00195;940.0405;;;;
2022/04/10 13:36:40;;;;;;;1.5;1.2;;;;;;;11.46;37.99805;939.9638;;;;
2022/04/10 13:39:08;;;;;;;1.1;1;;;;;;;11.48;36.30664;940.0478;;;;
2022/04/10 13:41:33;;;;;;;1.3;1.2;;;;;;;11.5;35.53027;940.0056;;;;
2022/04/10 13:44:01;;;;;;;2.5;1.2;;;;;;;11.68;37.73145;940.0011;;;;
2022/04/10 13:46:25;;;;;;;2.1;1.1;;;;;;;11.71;38.00879;939.9957;;;;
2022/04/10 13:48:54;;;;;;;1.7;1.2;;;;;;;11.59;39.2002;939.858;;;;
2022/04/10 13:51:25;;;;;;;2.5;1.5;;;;;;;11.18;38.61426;939.8794;;;;
2022/04/10 13:53:54;;;;;;;2;1.3;;;;;;;11.25;40.55273;939.8628;;;;
2022/04/10 13:56:19;;;;;;;1.8;1.5;;;;;;;11;39.76465;939.832;;;;
2022/04/10 13:58:47;;;;;;;1.4;1.1;;;;;;;11.29;38.69336;939.8959;;;;
2022/04/10 14:01:12;;;;;;;1.6;1.2;;;;;;;11.17;39.34473;939.8251;;;;
2022/04/10 14:03:40;;;;;;;1.9;1.4;;;;;;;10.87;41.13477;939.8361;;;;
2022/04/10 14:06:05;;;;;;;2.3;1;;;;;;;10.61;38.06055;939.7183;;;;
2022/04/10 14:08:31;;;;;;;1.8;1.3;;;;;;;10.47;35.42383;939.8215;;;;
2022/04/10 14:10:57;;;;;;;2.4;1.5;;;;;;;10.51;36.09961;939.8244;;;;
2022/04/10 14:13:23;;;;;;;2.1;1.4;;;;;;;10.29;34.39355;939.7784;;;;
2022/04/10 14:15:49;;;;;;;2.3;1.2;;;;;;;10.49;37.68555;939.7502;;;;
2022/04/10 14:18:18;;;;;;;1.6;1.1;;;;;;;10.59;37.625;939.6947;;;;
2022/04/10 14:20:42;;;;;;;3.1;1.6;;;;;;;10.92;34.84277;939.7037;;;;
2022/04/10 14:23:09;;;;;;;2.1;0.9;;;;;;;10.61;36.61035;939.7566;;;;
2022/04/10 14:25:34;;;;;;;1.5;1;;;;;;;10.22;35.72266;939.7082;;;;
2022/04/10 14:28:00;;;;;;;1.6;1.2;;;;;;;9.75;35.66113;939.6553;;;;
2022/04/10 14:30:25;;;;;;;1.5;1.1;;;;;;;9.97;38.0957;939.6816;;;;
2022/04/10 14:32:53;;;;;;;2.1;1.1;;;;;;;10.27;38.31738;939.7797;;;;
2022/04/10 14:35:21;;;;;;;1.1;1;;;;;;;10.17;37.25781;939.7189;;;;
2022/04/10 14:37:52;;;;;;;1.9;1;;;;;;;9.94;36.01855;939.6923;;;;
2022/04/10 14:40:34;;;;;;;1.4;1.1;;;;;;;9.72;38.49609;939.7184;;;;
2022/04/10 14:43:01;;;;;;;2.3;1.1;;;;;;;9.88;35.39746;939.6789;;;;
2022/04/10 14:45:27;;;;;;;1.1;0.8;;;;;;;9.85;38.29004;939.723;;;;
2022/04/10 14:47:56;;;;;;;1.1;0.9;;;;;;;10.18;35.95898;939.7342;;;;
2022/04/10 14:50:21;;;;;;;1.5;1;;;;;;;10.49;37.36523;939.7636;;;;
2022/04/10 14:52:52;;;;;;;1.9;0.9;;;;;;;10.35;37.41113;939.7289;;;;
2022/04/10 14:55:17;;;;;;;1.6;1.1;;;;;;;9.96;34.69727;939.6926;;;;
2022/04/10 14:57:47;;;;;;;1.2;1.1;;;;;;;9.91;36.7793;939.6968;;;;
2022/04/10 15:00:17;;;;;;;3.2;2.1;;;;;;;9.6;36.42285;939.6964;;;;
2022/04/10 15:02:42;;;;;;;1.6;1.3;;;;;;;9.68;36.47559;939.7012;;;;
2022/04/10 15:05:17;;;;;;;1.1;0.9;;;;;;;9.64;37.44043;939.7236;;;;
2022/04/10 15:07:50;;;;;;;1.2;1;;;;;;;9.85;40.19434;939.7054;;;;
2022/04/10 15:10:14;;;;;;;1.2;1;;;;;;;9.91;40.31445;939.7502;;;;
2022/04/10 15:12:43;;;;;;;2.3;1.3;;;;;;;10.25;38.04102;939.7261;;;;
2022/04/10 15:15:17;;;;;;;1.3;1;;;;;;;10.2;39.18848;939.6794;;;;
2022/04/10 15:17:43;;;;;;;1.7;1.6;;;;;;;9.71;40.5918;939.7263;;;;
2022/04/10 15:23:04;;;;;;;1.8;1.4;;;;;;;9.12;42.0498;939.7589;;;;
2022/04/10 15:25:29;;;;;;;2.2;2;;;;;;;9.22;41.83203;939.7442;;;;
2022/04/10 15:27:58;;;;;;;1.7;1.1;;;;;;;9.36;41.6748;939.8211;;;;
2022/04/10 15:33:10;;;;;;;1.6;0.9;;;;;;;9.29;42.25977;939.781;;;;
2022/04/10 15:35:39;;;;;;;2.8;2.1;;;;;;;9.42;42.4209;939.8488;;;;
2022/04/10 15:38:06;;;;;;;2.7;1.5;;;;;;;9.45;40.78418;939.8142;;;;
2022/04/10 15:40:36;;;;;;;1.5;1.4;;;;;;;9.22;41.82129;939.8459;;;;
2022/04/10 15:43:01;;;;;;;2.1;1.9;;;;;;;9.22;43.42578;939.8102;;;;
2022/04/10 15:45:27;;;;;;;2.6;1.3;;;;;;;9.51;42.53223;939.7778;;;;
2022/04/10 15:47:54;;;;;;;1.7;1.6;;;;;;;9.36;42.93848;939.8697;;;;
2022/04/10 15:50:19;;;;;;;1.4;1.3;;;;;;;8.79;41.92578;939.8342;;;;
2022/04/10 15:52:47;;;;;;;1.5;1.3;;;;;;;8.62;42.78516;939.8113;;;;
2022/04/10 15:55:12;;;;;;;2.4;1.7;;;;;;;8.74;42.72949;939.8912;;;;
2022/04/10 15:57:42;;;;;;;1.2;1;;;;;;;8.73;42.75098;939.9331;;;;
2022/04/10 16:00:17;;;;;;;4.6;2.9;;;;;;;8.7;43.82813;939.9532;;;;